<?xml version="1.0" encoding="UTF-8" standalone="no" ?>
<gpx xmlns="http://www.topografix.com/GPX/1/1" xmlns:xsi="http://www.w3.org/2001/XMLSchema-instance" xsi:schemaLocation="http://www.topografix.com/GPX/1/1 http://www.topografix.com/GPX/1/1/gpx.xsd" version="1.1" creator="VisuGPX - https://www.visugpx.com">
  <metadata>
    <name>11432595-FERME DES COLLINES - LA NOIERIE 15 km</name>
  </metadata>
  <trk>
    <name><![CDATA[11432595-FERME DES COLLINES - LA NOIERIE 15 km]]></name>
    <trkseg>
      <trkpt lat="46.33099" lon="4.24096">
        <ele>353</ele>
        <time>2020-06-06T15:35:11Z</time>
      </trkpt>
      <trkpt lat="46.33125" lon="4.24088">
        <ele>352</ele>
        <time>2020-06-06T15:35:46Z</time>
      </trkpt>
      <trkpt lat="46.33156" lon="4.24075">
        <ele>350</ele>
        <time>2020-06-06T15:36:30Z</time>
      </trkpt>
      <trkpt lat="46.33149" lon="4.24034">
        <ele>351</ele>
        <time>2020-06-06T15:37:08Z</time>
      </trkpt>
      <trkpt lat="46.33126" lon="4.23957">
        <ele>353</ele>
        <time>2020-06-06T15:38:26Z</time>
      </trkpt>
      <trkpt lat="46.33118" lon="4.23917">
        <ele>354</ele>
        <time>2020-06-06T15:39:04Z</time>
      </trkpt>
      <trkpt lat="46.33134" lon="4.23912">
        <ele>353</ele>
        <time>2020-06-06T15:39:26Z</time>
      </trkpt>
      <trkpt lat="46.33154" lon="4.239">
        <ele>353</ele>
        <time>2020-06-06T15:39:55Z</time>
      </trkpt>
      <trkpt lat="46.33184" lon="4.23879">
        <ele>352</ele>
        <time>2020-06-06T15:40:39Z</time>
      </trkpt>
      <trkpt lat="46.33187" lon="4.2388">
        <ele>352</ele>
        <time>2020-06-06T15:40:43Z</time>
      </trkpt>
      <trkpt lat="46.33193" lon="4.23835">
        <ele>352</ele>
        <time>2020-06-06T15:41:26Z</time>
      </trkpt>
      <trkpt lat="46.33192" lon="4.23819">
        <ele>352</ele>
        <time>2020-06-06T15:41:40Z</time>
      </trkpt>
      <trkpt lat="46.33177" lon="4.2377">
        <ele>353</ele>
        <time>2020-06-06T15:42:30Z</time>
      </trkpt>
      <trkpt lat="46.33152" lon="4.23699">
        <ele>356</ele>
        <time>2020-06-06T15:43:43Z</time>
      </trkpt>
      <trkpt lat="46.33145" lon="4.23636">
        <ele>357</ele>
        <time>2020-06-06T15:44:42Z</time>
      </trkpt>
      <trkpt lat="46.33102" lon="4.23637">
        <ele>359</ele>
        <time>2020-06-06T15:45:39Z</time>
      </trkpt>
      <trkpt lat="46.33105" lon="4.23633">
        <ele>359</ele>
        <time>2020-06-06T15:45:45Z</time>
      </trkpt>
      <trkpt lat="46.33112" lon="4.23615">
        <ele>358</ele>
        <time>2020-06-06T15:46:04Z</time>
      </trkpt>
      <trkpt lat="46.33116" lon="4.23593">
        <ele>358</ele>
        <time>2020-06-06T15:46:25Z</time>
      </trkpt>
      <trkpt lat="46.33117" lon="4.23578">
        <ele>358</ele>
        <time>2020-06-06T15:46:39Z</time>
      </trkpt>
      <trkpt lat="46.33112" lon="4.23531">
        <ele>360</ele>
        <time>2020-06-06T15:47:23Z</time>
      </trkpt>
      <trkpt lat="46.33112" lon="4.23502">
        <ele>361</ele>
        <time>2020-06-06T15:47:49Z</time>
      </trkpt>
      <trkpt lat="46.33115" lon="4.23474">
        <ele>362</ele>
        <time>2020-06-06T15:48:15Z</time>
      </trkpt>
      <trkpt lat="46.33126" lon="4.23431">
        <ele>363</ele>
        <time>2020-06-06T15:48:58Z</time>
      </trkpt>
      <trkpt lat="46.33132" lon="4.23398">
        <ele>364</ele>
        <time>2020-06-06T15:49:29Z</time>
      </trkpt>
      <trkpt lat="46.33138" lon="4.23346">
        <ele>366</ele>
        <time>2020-06-06T15:50:18Z</time>
      </trkpt>
      <trkpt lat="46.33143" lon="4.23291">
        <ele>371</ele>
        <time>2020-06-06T15:51:09Z</time>
      </trkpt>
      <trkpt lat="46.33161" lon="4.2318">
        <ele>379</ele>
        <time>2020-06-06T15:52:54Z</time>
      </trkpt>
      <trkpt lat="46.3317" lon="4.23067">
        <ele>385</ele>
        <time>2020-06-06T15:54:39Z</time>
      </trkpt>
      <trkpt lat="46.33178" lon="4.23061">
        <ele>384</ele>
        <time>2020-06-06T15:54:51Z</time>
      </trkpt>
      <trkpt lat="46.33214" lon="4.2298">
        <ele>383</ele>
        <time>2020-06-06T15:56:20Z</time>
      </trkpt>
      <trkpt lat="46.33227" lon="4.22957">
        <ele>382</ele>
        <time>2020-06-06T15:56:47Z</time>
      </trkpt>
      <trkpt lat="46.33251" lon="4.22919">
        <ele>384</ele>
        <time>2020-06-06T15:57:34Z</time>
      </trkpt>
      <trkpt lat="46.33269" lon="4.229">
        <ele>381</ele>
        <time>2020-06-06T15:58:04Z</time>
      </trkpt>
      <trkpt lat="46.33321" lon="4.22863">
        <ele>375</ele>
        <time>2020-06-06T15:59:21Z</time>
      </trkpt>
      <trkpt lat="46.33367" lon="4.22812">
        <ele>371</ele>
        <time>2020-06-06T16:00:39Z</time>
      </trkpt>
      <trkpt lat="46.33415" lon="4.22746">
        <ele>368</ele>
        <time>2020-06-06T16:02:07Z</time>
      </trkpt>
      <trkpt lat="46.33434" lon="4.22716">
        <ele>367</ele>
        <time>2020-06-06T16:02:45Z</time>
      </trkpt>
      <trkpt lat="46.33482" lon="4.22629">
        <ele>365</ele>
        <time>2020-06-06T16:04:27Z</time>
      </trkpt>
      <trkpt lat="46.33535" lon="4.22519">
        <ele>365</ele>
        <time>2020-06-06T16:06:31Z</time>
      </trkpt>
      <trkpt lat="46.33573" lon="4.22436">
        <ele>367</ele>
        <time>2020-06-06T16:08:02Z</time>
      </trkpt>
      <trkpt lat="46.3361" lon="4.22335">
        <ele>369</ele>
        <time>2020-06-06T16:09:48Z</time>
      </trkpt>
      <trkpt lat="46.33624" lon="4.22257">
        <ele>373</ele>
        <time>2020-06-06T16:11:02Z</time>
      </trkpt>
      <trkpt lat="46.33641" lon="4.22226">
        <ele>374</ele>
        <time>2020-06-06T16:11:39Z</time>
      </trkpt>
      <trkpt lat="46.3366" lon="4.2218">
        <ele>375</ele>
        <time>2020-06-06T16:12:28Z</time>
      </trkpt>
      <trkpt lat="46.33679" lon="4.22124">
        <ele>375</ele>
        <time>2020-06-06T16:13:25Z</time>
      </trkpt>
      <trkpt lat="46.33702" lon="4.22068">
        <ele>372</ele>
        <time>2020-06-06T16:14:25Z</time>
      </trkpt>
      <trkpt lat="46.33754" lon="4.2192">
        <ele>363</ele>
        <time>2020-06-06T16:16:58Z</time>
      </trkpt>
      <trkpt lat="46.33757" lon="4.21918">
        <ele>362</ele>
        <time>2020-06-06T16:17:03Z</time>
      </trkpt>
      <trkpt lat="46.33762" lon="4.21918">
        <ele>362</ele>
        <time>2020-06-06T16:17:10Z</time>
      </trkpt>
      <trkpt lat="46.33768" lon="4.21922">
        <ele>361</ele>
        <time>2020-06-06T16:17:18Z</time>
      </trkpt>
      <trkpt lat="46.33793" lon="4.21948">
        <ele>359</ele>
        <time>2020-06-06T16:17:59Z</time>
      </trkpt>
      <trkpt lat="46.33804" lon="4.21954">
        <ele>357</ele>
        <time>2020-06-06T16:18:15Z</time>
      </trkpt>
      <trkpt lat="46.33809" lon="4.21955">
        <ele>357</ele>
        <time>2020-06-06T16:18:22Z</time>
      </trkpt>
      <trkpt lat="46.33812" lon="4.21952">
        <ele>356</ele>
        <time>2020-06-06T16:18:27Z</time>
      </trkpt>
      <trkpt lat="46.33821" lon="4.21928">
        <ele>355</ele>
        <time>2020-06-06T16:18:52Z</time>
      </trkpt>
      <trkpt lat="46.33865" lon="4.21841">
        <ele>347</ele>
        <time>2020-06-06T16:20:31Z</time>
      </trkpt>
      <trkpt lat="46.33908" lon="4.21762">
        <ele>343</ele>
        <time>2020-06-06T16:22:04Z</time>
      </trkpt>
      <trkpt lat="46.33917" lon="4.21763">
        <ele>343</ele>
        <time>2020-06-06T16:22:16Z</time>
      </trkpt>
      <trkpt lat="46.33911" lon="4.21762">
        <ele>343</ele>
        <time>2020-06-06T16:22:24Z</time>
      </trkpt>
      <trkpt lat="46.33905" lon="4.2174">
        <ele>343</ele>
        <time>2020-06-06T16:22:46Z</time>
      </trkpt>
      <trkpt lat="46.33898" lon="4.21722">
        <ele>343</ele>
        <time>2020-06-06T16:23:05Z</time>
      </trkpt>
      <trkpt lat="46.3389" lon="4.21687">
        <ele>341</ele>
        <time>2020-06-06T16:23:39Z</time>
      </trkpt>
      <trkpt lat="46.33879" lon="4.21653">
        <ele>339</ele>
        <time>2020-06-06T16:24:13Z</time>
      </trkpt>
      <trkpt lat="46.33845" lon="4.21576">
        <ele>333</ele>
        <time>2020-06-06T16:25:38Z</time>
      </trkpt>
      <trkpt lat="46.33834" lon="4.21547">
        <ele>331</ele>
        <time>2020-06-06T16:26:08Z</time>
      </trkpt>
      <trkpt lat="46.33819" lon="4.21503">
        <ele>328</ele>
        <time>2020-06-06T16:26:53Z</time>
      </trkpt>
      <trkpt lat="46.33758" lon="4.21407">
        <ele>319</ele>
        <time>2020-06-06T16:28:54Z</time>
      </trkpt>
      <trkpt lat="46.33751" lon="4.21384">
        <ele>317</ele>
        <time>2020-06-06T16:29:17Z</time>
      </trkpt>
      <trkpt lat="46.33735" lon="4.21346">
        <ele>315</ele>
        <time>2020-06-06T16:29:58Z</time>
      </trkpt>
      <trkpt lat="46.33728" lon="4.21338">
        <ele>314</ele>
        <time>2020-06-06T16:30:10Z</time>
      </trkpt>
      <trkpt lat="46.33712" lon="4.21331">
        <ele>314</ele>
        <time>2020-06-06T16:30:32Z</time>
      </trkpt>
      <trkpt lat="46.33705" lon="4.21332">
        <ele>314</ele>
        <time>2020-06-06T16:30:41Z</time>
      </trkpt>
      <trkpt lat="46.33648" lon="4.21365">
        <ele>315</ele>
        <time>2020-06-06T16:32:03Z</time>
      </trkpt>
      <trkpt lat="46.33605" lon="4.21394">
        <ele>315</ele>
        <time>2020-06-06T16:33:06Z</time>
      </trkpt>
      <trkpt lat="46.33566" lon="4.21274">
        <ele>304</ele>
        <time>2020-06-06T16:35:09Z</time>
      </trkpt>
      <trkpt lat="46.33561" lon="4.21266">
        <ele>303</ele>
        <time>2020-06-06T16:35:19Z</time>
      </trkpt>
      <trkpt lat="46.33558" lon="4.21263">
        <ele>302</ele>
        <time>2020-06-06T16:35:23Z</time>
      </trkpt>
      <trkpt lat="46.33549" lon="4.21263">
        <ele>301</ele>
        <time>2020-06-06T16:35:35Z</time>
      </trkpt>
      <trkpt lat="46.33531" lon="4.2127">
        <ele>300</ele>
        <time>2020-06-06T16:36:00Z</time>
      </trkpt>
      <trkpt lat="46.33494" lon="4.21289">
        <ele>299</ele>
        <time>2020-06-06T16:36:53Z</time>
      </trkpt>
      <trkpt lat="46.3348" lon="4.21292">
        <ele>299</ele>
        <time>2020-06-06T16:37:12Z</time>
      </trkpt>
      <trkpt lat="46.33471" lon="4.2129">
        <ele>298</ele>
        <time>2020-06-06T16:37:24Z</time>
      </trkpt>
      <trkpt lat="46.33449" lon="4.21278">
        <ele>297</ele>
        <time>2020-06-06T16:37:55Z</time>
      </trkpt>
      <trkpt lat="46.33428" lon="4.21272">
        <ele>295</ele>
        <time>2020-06-06T16:38:24Z</time>
      </trkpt>
      <trkpt lat="46.33399" lon="4.21273">
        <ele>296</ele>
        <time>2020-06-06T16:39:02Z</time>
      </trkpt>
      <trkpt lat="46.33393" lon="4.21274">
        <ele>296</ele>
        <time>2020-06-06T16:39:10Z</time>
      </trkpt>
      <trkpt lat="46.33385" lon="4.21276">
        <ele>296</ele>
        <time>2020-06-06T16:39:21Z</time>
      </trkpt>
      <trkpt lat="46.33365" lon="4.21282">
        <ele>297</ele>
        <time>2020-06-06T16:39:49Z</time>
      </trkpt>
      <trkpt lat="46.33352" lon="4.21283">
        <ele>297</ele>
        <time>2020-06-06T16:40:06Z</time>
      </trkpt>
      <trkpt lat="46.33346" lon="4.21281">
        <ele>297</ele>
        <time>2020-06-06T16:40:14Z</time>
      </trkpt>
      <trkpt lat="46.3329" lon="4.21231">
        <ele>303</ele>
        <time>2020-06-06T16:41:42Z</time>
      </trkpt>
      <trkpt lat="46.33268" lon="4.21208">
        <ele>305</ele>
        <time>2020-06-06T16:42:18Z</time>
      </trkpt>
      <trkpt lat="46.3326" lon="4.21202">
        <ele>306</ele>
        <time>2020-06-06T16:42:30Z</time>
      </trkpt>
      <trkpt lat="46.33259" lon="4.21205">
        <ele>306</ele>
        <time>2020-06-06T16:42:33Z</time>
      </trkpt>
      <trkpt lat="46.3326" lon="4.21199">
        <ele>306</ele>
        <time>2020-06-06T16:42:39Z</time>
      </trkpt>
      <trkpt lat="46.33247" lon="4.21135">
        <ele>313</ele>
        <time>2020-06-06T16:43:40Z</time>
      </trkpt>
      <trkpt lat="46.33247" lon="4.21121">
        <ele>315</ele>
        <time>2020-06-06T16:43:53Z</time>
      </trkpt>
      <trkpt lat="46.33269" lon="4.21068">
        <ele>323</ele>
        <time>2020-06-06T16:44:50Z</time>
      </trkpt>
      <trkpt lat="46.33292" lon="4.21024">
        <ele>328</ele>
        <time>2020-06-06T16:45:41Z</time>
      </trkpt>
      <trkpt lat="46.33359" lon="4.20912">
        <ele>338</ele>
        <time>2020-06-06T16:47:58Z</time>
      </trkpt>
      <trkpt lat="46.33364" lon="4.209">
        <ele>339</ele>
        <time>2020-06-06T16:48:11Z</time>
      </trkpt>
      <trkpt lat="46.33374" lon="4.2086">
        <ele>342</ele>
        <time>2020-06-06T16:48:50Z</time>
      </trkpt>
      <trkpt lat="46.33378" lon="4.20815">
        <ele>346</ele>
        <time>2020-06-06T16:49:32Z</time>
      </trkpt>
      <trkpt lat="46.33384" lon="4.20794">
        <ele>345</ele>
        <time>2020-06-06T16:49:53Z</time>
      </trkpt>
      <trkpt lat="46.33387" lon="4.20774">
        <ele>345</ele>
        <time>2020-06-06T16:50:11Z</time>
      </trkpt>
      <trkpt lat="46.33388" lon="4.20754">
        <ele>346</ele>
        <time>2020-06-06T16:50:30Z</time>
      </trkpt>
      <trkpt lat="46.33383" lon="4.20728">
        <ele>347</ele>
        <time>2020-06-06T16:50:55Z</time>
      </trkpt>
      <trkpt lat="46.33377" lon="4.20704">
        <ele>347</ele>
        <time>2020-06-06T16:51:18Z</time>
      </trkpt>
      <trkpt lat="46.33363" lon="4.20659">
        <ele>348</ele>
        <time>2020-06-06T16:52:04Z</time>
      </trkpt>
      <trkpt lat="46.33342" lon="4.20608">
        <ele>349</ele>
        <time>2020-06-06T16:52:58Z</time>
      </trkpt>
      <trkpt lat="46.33304" lon="4.20646">
        <ele>352</ele>
        <time>2020-06-06T16:54:00Z</time>
      </trkpt>
      <trkpt lat="46.33264" lon="4.2067">
        <ele>354</ele>
        <time>2020-06-06T16:54:58Z</time>
      </trkpt>
      <trkpt lat="46.33224" lon="4.20686">
        <ele>356</ele>
        <time>2020-06-06T16:55:53Z</time>
      </trkpt>
      <trkpt lat="46.33154" lon="4.20693">
        <ele>358</ele>
        <time>2020-06-06T16:57:27Z</time>
      </trkpt>
      <trkpt lat="46.33078" lon="4.20687">
        <ele>359</ele>
        <time>2020-06-06T16:59:08Z</time>
      </trkpt>
      <trkpt lat="46.33045" lon="4.2069">
        <ele>360</ele>
        <time>2020-06-06T16:59:53Z</time>
      </trkpt>
      <trkpt lat="46.32958" lon="4.20715">
        <ele>358</ele>
        <time>2020-06-06T17:01:51Z</time>
      </trkpt>
      <trkpt lat="46.32903" lon="4.20707">
        <ele>357</ele>
        <time>2020-06-06T17:03:05Z</time>
      </trkpt>
      <trkpt lat="46.32818" lon="4.20711">
        <ele>361</ele>
        <time>2020-06-06T17:04:58Z</time>
      </trkpt>
      <trkpt lat="46.32821" lon="4.20718">
        <ele>360</ele>
        <time>2020-06-06T17:05:06Z</time>
      </trkpt>
      <trkpt lat="46.32815" lon="4.20709">
        <ele>362</ele>
        <time>2020-06-06T17:05:17Z</time>
      </trkpt>
      <trkpt lat="46.32811" lon="4.20696">
        <ele>363</ele>
        <time>2020-06-06T17:05:30Z</time>
      </trkpt>
      <trkpt lat="46.32811" lon="4.20674">
        <ele>365</ele>
        <time>2020-06-06T17:05:51Z</time>
      </trkpt>
      <trkpt lat="46.32817" lon="4.20639">
        <ele>367</ele>
        <time>2020-06-06T17:06:24Z</time>
      </trkpt>
      <trkpt lat="46.32824" lon="4.20611">
        <ele>369</ele>
        <time>2020-06-06T17:06:51Z</time>
      </trkpt>
      <trkpt lat="46.32825" lon="4.20575">
        <ele>372</ele>
        <time>2020-06-06T17:07:25Z</time>
      </trkpt>
      <trkpt lat="46.32811" lon="4.20468">
        <ele>374</ele>
        <time>2020-06-06T17:09:05Z</time>
      </trkpt>
      <trkpt lat="46.3264" lon="4.19556">
        <ele>347</ele>
        <time>2020-06-06T17:23:36Z</time>
      </trkpt>
      <trkpt lat="46.32631" lon="4.19529">
        <ele>346</ele>
        <time>2020-06-06T17:24:03Z</time>
      </trkpt>
      <trkpt lat="46.32616" lon="4.19496">
        <ele>345</ele>
        <time>2020-06-06T17:24:40Z</time>
      </trkpt>
      <trkpt lat="46.32579" lon="4.19431">
        <ele>344</ele>
        <time>2020-06-06T17:25:57Z</time>
      </trkpt>
      <trkpt lat="46.32497" lon="4.19306">
        <ele>341</ele>
        <time>2020-06-06T17:28:36Z</time>
      </trkpt>
      <trkpt lat="46.32452" lon="4.19243">
        <ele>341</ele>
        <time>2020-06-06T17:30:00Z</time>
      </trkpt>
      <trkpt lat="46.32433" lon="4.19205">
        <ele>340</ele>
        <time>2020-06-06T17:30:43Z</time>
      </trkpt>
      <trkpt lat="46.32437" lon="4.19197">
        <ele>339</ele>
        <time>2020-06-06T17:30:52Z</time>
      </trkpt>
      <trkpt lat="46.32427" lon="4.19154">
        <ele>337</ele>
        <time>2020-06-06T17:31:34Z</time>
      </trkpt>
      <trkpt lat="46.32391" lon="4.19107">
        <ele>333</ele>
        <time>2020-06-06T17:32:39Z</time>
      </trkpt>
      <trkpt lat="46.32385" lon="4.191">
        <ele>333</ele>
        <time>2020-06-06T17:32:49Z</time>
      </trkpt>
      <trkpt lat="46.32392" lon="4.19071">
        <ele>331</ele>
        <time>2020-06-06T17:33:17Z</time>
      </trkpt>
      <trkpt lat="46.32398" lon="4.19064">
        <ele>331</ele>
        <time>2020-06-06T17:33:28Z</time>
      </trkpt>
      <trkpt lat="46.32439" lon="4.19034">
        <ele>329</ele>
        <time>2020-06-06T17:34:29Z</time>
      </trkpt>
      <trkpt lat="46.32461" lon="4.19014">
        <ele>328</ele>
        <time>2020-06-06T17:35:03Z</time>
      </trkpt>
      <trkpt lat="46.32463" lon="4.1901">
        <ele>327</ele>
        <time>2020-06-06T17:35:08Z</time>
      </trkpt>
      <trkpt lat="46.32457" lon="4.19012">
        <ele>327</ele>
        <time>2020-06-06T17:35:16Z</time>
      </trkpt>
      <trkpt lat="46.32468" lon="4.18981">
        <ele>326</ele>
        <time>2020-06-06T17:35:48Z</time>
      </trkpt>
      <trkpt lat="46.32473" lon="4.18963">
        <ele>325</ele>
        <time>2020-06-06T17:36:06Z</time>
      </trkpt>
      <trkpt lat="46.32472" lon="4.18948">
        <ele>325</ele>
        <time>2020-06-06T17:36:20Z</time>
      </trkpt>
      <trkpt lat="46.32467" lon="4.18934">
        <ele>324</ele>
        <time>2020-06-06T17:36:35Z</time>
      </trkpt>
      <trkpt lat="46.32453" lon="4.18915">
        <ele>323</ele>
        <time>2020-06-06T17:37:00Z</time>
      </trkpt>
      <trkpt lat="46.32452" lon="4.18911">
        <ele>323</ele>
        <time>2020-06-06T17:37:04Z</time>
      </trkpt>
      <trkpt lat="46.32449" lon="4.18905">
        <ele>323</ele>
        <time>2020-06-06T17:37:11Z</time>
      </trkpt>
      <trkpt lat="46.32443" lon="4.18891">
        <ele>323</ele>
        <time>2020-06-06T17:37:26Z</time>
      </trkpt>
      <trkpt lat="46.32423" lon="4.18832">
        <ele>326</ele>
        <time>2020-06-06T17:38:27Z</time>
      </trkpt>
      <trkpt lat="46.32424" lon="4.18818">
        <ele>326</ele>
        <time>2020-06-06T17:38:40Z</time>
      </trkpt>
      <trkpt lat="46.32431" lon="4.18803">
        <ele>326</ele>
        <time>2020-06-06T17:38:56Z</time>
      </trkpt>
      <trkpt lat="46.32479" lon="4.1877">
        <ele>324</ele>
        <time>2020-06-06T17:40:07Z</time>
      </trkpt>
      <trkpt lat="46.32486" lon="4.18759">
        <ele>324</ele>
        <time>2020-06-06T17:40:21Z</time>
      </trkpt>
      <trkpt lat="46.32488" lon="4.18749">
        <ele>324</ele>
        <time>2020-06-06T17:40:31Z</time>
      </trkpt>
      <trkpt lat="46.32485" lon="4.18711">
        <ele>325</ele>
        <time>2020-06-06T17:41:06Z</time>
      </trkpt>
      <trkpt lat="46.32488" lon="4.18697">
        <ele>326</ele>
        <time>2020-06-06T17:41:19Z</time>
      </trkpt>
      <trkpt lat="46.32498" lon="4.1867">
        <ele>327</ele>
        <time>2020-06-06T17:41:48Z</time>
      </trkpt>
      <trkpt lat="46.32521" lon="4.18637">
        <ele>328</ele>
        <time>2020-06-06T17:42:31Z</time>
      </trkpt>
      <trkpt lat="46.32528" lon="4.18631">
        <ele>329</ele>
        <time>2020-06-06T17:42:42Z</time>
      </trkpt>
      <trkpt lat="46.32546" lon="4.1862">
        <ele>329</ele>
        <time>2020-06-06T17:43:08Z</time>
      </trkpt>
      <trkpt lat="46.32589" lon="4.18581">
        <ele>330</ele>
        <time>2020-06-06T17:44:16Z</time>
      </trkpt>
      <trkpt lat="46.32611" lon="4.18558">
        <ele>330</ele>
        <time>2020-06-06T17:44:52Z</time>
      </trkpt>
      <trkpt lat="46.32625" lon="4.18539">
        <ele>330</ele>
        <time>2020-06-06T17:45:17Z</time>
      </trkpt>
      <trkpt lat="46.3265" lon="4.18494">
        <ele>331</ele>
        <time>2020-06-06T17:46:11Z</time>
      </trkpt>
      <trkpt lat="46.3266" lon="4.18485">
        <ele>330</ele>
        <time>2020-06-06T17:46:26Z</time>
      </trkpt>
      <trkpt lat="46.32731" lon="4.184">
        <ele>326</ele>
        <time>2020-06-06T17:48:29Z</time>
      </trkpt>
      <trkpt lat="46.32767" lon="4.18354">
        <ele>323</ele>
        <time>2020-06-06T17:49:33Z</time>
      </trkpt>
      <trkpt lat="46.32836" lon="4.18256">
        <ele>322</ele>
        <time>2020-06-06T17:51:42Z</time>
      </trkpt>
      <trkpt lat="46.32841" lon="4.18263">
        <ele>322</ele>
        <time>2020-06-06T17:51:52Z</time>
      </trkpt>
      <trkpt lat="46.32869" lon="4.1829">
        <ele>321</ele>
        <time>2020-06-06T17:52:36Z</time>
      </trkpt>
      <trkpt lat="46.32876" lon="4.18288">
        <ele>321</ele>
        <time>2020-06-06T17:52:46Z</time>
      </trkpt>
      <trkpt lat="46.32876" lon="4.18293">
        <ele>320</ele>
        <time>2020-06-06T17:52:51Z</time>
      </trkpt>
      <trkpt lat="46.32882" lon="4.18293">
        <ele>320</ele>
        <time>2020-06-06T17:52:59Z</time>
      </trkpt>
      <trkpt lat="46.32904" lon="4.18304">
        <ele>320</ele>
        <time>2020-06-06T17:53:30Z</time>
      </trkpt>
      <trkpt lat="46.32923" lon="4.18307">
        <ele>319</ele>
        <time>2020-06-06T17:53:55Z</time>
      </trkpt>
      <trkpt lat="46.32929" lon="4.18313">
        <ele>319</ele>
        <time>2020-06-06T17:54:05Z</time>
      </trkpt>
      <trkpt lat="46.3293" lon="4.18332">
        <ele>319</ele>
        <time>2020-06-06T17:54:22Z</time>
      </trkpt>
      <trkpt lat="46.3298" lon="4.18341">
        <ele>316</ele>
        <time>2020-06-06T17:55:30Z</time>
      </trkpt>
      <trkpt lat="46.3299" lon="4.18341">
        <ele>316</ele>
        <time>2020-06-06T17:55:43Z</time>
      </trkpt>
      <trkpt lat="46.33054" lon="4.18323">
        <ele>316</ele>
        <time>2020-06-06T17:57:10Z</time>
      </trkpt>
      <trkpt lat="46.33069" lon="4.18321">
        <ele>315</ele>
        <time>2020-06-06T17:57:30Z</time>
      </trkpt>
      <trkpt lat="46.33101" lon="4.18306">
        <ele>314</ele>
        <time>2020-06-06T17:58:15Z</time>
      </trkpt>
      <trkpt lat="46.33117" lon="4.18289">
        <ele>314</ele>
        <time>2020-06-06T17:58:41Z</time>
      </trkpt>
      <trkpt lat="46.33175" lon="4.18245">
        <ele>312</ele>
        <time>2020-06-06T18:00:09Z</time>
      </trkpt>
      <trkpt lat="46.33255" lon="4.18202">
        <ele>310</ele>
        <time>2020-06-06T18:02:03Z</time>
      </trkpt>
      <trkpt lat="46.33377" lon="4.1817">
        <ele>308</ele>
        <time>2020-06-06T18:04:48Z</time>
      </trkpt>
      <trkpt lat="46.33385" lon="4.1817">
        <ele>308</ele>
        <time>2020-06-06T18:04:59Z</time>
      </trkpt>
      <trkpt lat="46.33377" lon="4.1817">
        <ele>308</ele>
        <time>2020-06-06T18:05:10Z</time>
      </trkpt>
      <trkpt lat="46.33376" lon="4.18131">
        <ele>310</ele>
        <time>2020-06-06T18:05:45Z</time>
      </trkpt>
      <trkpt lat="46.33346" lon="4.17957">
        <ele>316</ele>
        <time>2020-06-06T18:08:31Z</time>
      </trkpt>
      <trkpt lat="46.33331" lon="4.1789">
        <ele>318</ele>
        <time>2020-06-06T18:09:36Z</time>
      </trkpt>
      <trkpt lat="46.33323" lon="4.17831">
        <ele>321</ele>
        <time>2020-06-06T18:10:31Z</time>
      </trkpt>
      <trkpt lat="46.33307" lon="4.17768">
        <ele>325</ele>
        <time>2020-06-06T18:11:33Z</time>
      </trkpt>
      <trkpt lat="46.33297" lon="4.17676">
        <ele>331</ele>
        <time>2020-06-06T18:12:59Z</time>
      </trkpt>
      <trkpt lat="46.33319" lon="4.17517">
        <ele>340</ele>
        <time>2020-06-06T18:15:28Z</time>
      </trkpt>
      <trkpt lat="46.33323" lon="4.17458">
        <ele>343</ele>
        <time>2020-06-06T18:16:23Z</time>
      </trkpt>
      <trkpt lat="46.33322" lon="4.17428">
        <ele>345</ele>
        <time>2020-06-06T18:16:50Z</time>
      </trkpt>
      <trkpt lat="46.33319" lon="4.17437">
        <ele>345</ele>
        <time>2020-06-06T18:17:00Z</time>
      </trkpt>
      <trkpt lat="46.33322" lon="4.17428">
        <ele>345</ele>
        <time>2020-06-06T18:17:09Z</time>
      </trkpt>
      <trkpt lat="46.33347" lon="4.17343">
        <ele>349</ele>
        <time>2020-06-06T18:18:34Z</time>
      </trkpt>
      <trkpt lat="46.33359" lon="4.17327">
        <ele>350</ele>
        <time>2020-06-06T18:18:56Z</time>
      </trkpt>
      <trkpt lat="46.33372" lon="4.1732">
        <ele>350</ele>
        <time>2020-06-06T18:19:14Z</time>
      </trkpt>
      <trkpt lat="46.33597" lon="4.17311">
        <ele>348</ele>
        <time>2020-06-06T18:24:15Z</time>
      </trkpt>
      <trkpt lat="46.33695" lon="4.17265">
        <ele>345</ele>
        <time>2020-06-06T18:26:32Z</time>
      </trkpt>
      <trkpt lat="46.33719" lon="4.1725">
        <ele>344</ele>
        <time>2020-06-06T18:27:07Z</time>
      </trkpt>
      <trkpt lat="46.33734" lon="4.17235">
        <ele>343</ele>
        <time>2020-06-06T18:27:31Z</time>
      </trkpt>
      <trkpt lat="46.33699" lon="4.17123">
        <ele>344</ele>
        <time>2020-06-06T18:29:25Z</time>
      </trkpt>
      <trkpt lat="46.33694" lon="4.17111">
        <ele>345</ele>
        <time>2020-06-06T18:29:37Z</time>
      </trkpt>
      <trkpt lat="46.33688" lon="4.17093">
        <ele>345</ele>
        <time>2020-06-06T18:29:56Z</time>
      </trkpt>
      <trkpt lat="46.33687" lon="4.17077">
        <ele>345</ele>
        <time>2020-06-06T18:30:11Z</time>
      </trkpt>
      <trkpt lat="46.3369" lon="4.17034">
        <ele>346</ele>
        <time>2020-06-06T18:30:50Z</time>
      </trkpt>
      <trkpt lat="46.33688" lon="4.17006">
        <ele>346</ele>
        <time>2020-06-06T18:31:16Z</time>
      </trkpt>
      <trkpt lat="46.33668" lon="4.16881">
        <ele>352</ele>
        <time>2020-06-06T18:33:15Z</time>
      </trkpt>
      <trkpt lat="46.33668" lon="4.16867">
        <ele>352</ele>
        <time>2020-06-06T18:33:28Z</time>
      </trkpt>
      <trkpt lat="46.33673" lon="4.16841">
        <ele>352</ele>
        <time>2020-06-06T18:33:52Z</time>
      </trkpt>
      <trkpt lat="46.33682" lon="4.16767">
        <ele>355</ele>
        <time>2020-06-06T18:35:02Z</time>
      </trkpt>
      <trkpt lat="46.33679" lon="4.1675">
        <ele>357</ele>
        <time>2020-06-06T18:35:18Z</time>
      </trkpt>
      <trkpt lat="46.33669" lon="4.16727">
        <ele>358</ele>
        <time>2020-06-06T18:35:43Z</time>
      </trkpt>
      <trkpt lat="46.33602" lon="4.16585">
        <ele>357</ele>
        <time>2020-06-06T18:38:21Z</time>
      </trkpt>
      <trkpt lat="46.33594" lon="4.16577">
        <ele>356</ele>
        <time>2020-06-06T18:38:34Z</time>
      </trkpt>
      <trkpt lat="46.33525" lon="4.16475">
        <ele>346</ele>
        <time>2020-06-06T18:40:46Z</time>
      </trkpt>
      <trkpt lat="46.33528" lon="4.1647">
        <ele>346</ele>
        <time>2020-06-06T18:40:52Z</time>
      </trkpt>
      <trkpt lat="46.33501" lon="4.16409">
        <ele>340</ele>
        <time>2020-06-06T18:41:59Z</time>
      </trkpt>
      <trkpt lat="46.33477" lon="4.16316">
        <ele>332</ele>
        <time>2020-06-06T18:43:30Z</time>
      </trkpt>
      <trkpt lat="46.33462" lon="4.16276">
        <ele>330</ele>
        <time>2020-06-06T18:44:12Z</time>
      </trkpt>
      <trkpt lat="46.33431" lon="4.162">
        <ele>327</ele>
        <time>2020-06-06T18:45:33Z</time>
      </trkpt>
      <trkpt lat="46.33418" lon="4.16173">
        <ele>326</ele>
        <time>2020-06-06T18:46:04Z</time>
      </trkpt>
      <trkpt lat="46.33384" lon="4.16129">
        <ele>322</ele>
        <time>2020-06-06T18:47:05Z</time>
      </trkpt>
      <trkpt lat="46.33385" lon="4.16137">
        <ele>323</ele>
        <time>2020-06-06T18:47:12Z</time>
      </trkpt>
      <trkpt lat="46.33383" lon="4.16143">
        <ele>323</ele>
        <time>2020-06-06T18:47:18Z</time>
      </trkpt>
      <trkpt lat="46.3337" lon="4.16157">
        <ele>323</ele>
        <time>2020-06-06T18:47:40Z</time>
      </trkpt>
      <trkpt lat="46.3335" lon="4.1617">
        <ele>323</ele>
        <time>2020-06-06T18:48:09Z</time>
      </trkpt>
      <trkpt lat="46.33314" lon="4.16198">
        <ele>323</ele>
        <time>2020-06-06T18:49:04Z</time>
      </trkpt>
      <trkpt lat="46.33302" lon="4.16214">
        <ele>323</ele>
        <time>2020-06-06T18:49:25Z</time>
      </trkpt>
      <trkpt lat="46.33293" lon="4.16231">
        <ele>323</ele>
        <time>2020-06-06T18:49:45Z</time>
      </trkpt>
      <trkpt lat="46.33281" lon="4.16263">
        <ele>324</ele>
        <time>2020-06-06T18:50:19Z</time>
      </trkpt>
      <trkpt lat="46.33252" lon="4.16386">
        <ele>328</ele>
        <time>2020-06-06T18:52:18Z</time>
      </trkpt>
      <trkpt lat="46.33246" lon="4.16398">
        <ele>328</ele>
        <time>2020-06-06T18:52:32Z</time>
      </trkpt>
      <trkpt lat="46.33239" lon="4.16403">
        <ele>329</ele>
        <time>2020-06-06T18:52:43Z</time>
      </trkpt>
      <trkpt lat="46.33225" lon="4.16404">
        <ele>329</ele>
        <time>2020-06-06T18:53:01Z</time>
      </trkpt>
      <trkpt lat="46.33179" lon="4.16395">
        <ele>329</ele>
        <time>2020-06-06T18:54:03Z</time>
      </trkpt>
      <trkpt lat="46.33163" lon="4.16395">
        <ele>330</ele>
        <time>2020-06-06T18:54:25Z</time>
      </trkpt>
      <trkpt lat="46.33137" lon="4.16391">
        <ele>328</ele>
        <time>2020-06-06T18:54:59Z</time>
      </trkpt>
      <trkpt lat="46.3308" lon="4.1639">
        <ele>326</ele>
        <time>2020-06-06T18:56:16Z</time>
      </trkpt>
      <trkpt lat="46.33064" lon="4.16393">
        <ele>326</ele>
        <time>2020-06-06T18:56:37Z</time>
      </trkpt>
      <trkpt lat="46.33044" lon="4.16402">
        <ele>326</ele>
        <time>2020-06-06T18:57:05Z</time>
      </trkpt>
      <trkpt lat="46.3303" lon="4.16405">
        <ele>326</ele>
        <time>2020-06-06T18:57:24Z</time>
      </trkpt>
      <trkpt lat="46.33012" lon="4.16406">
        <ele>326</ele>
        <time>2020-06-06T18:57:48Z</time>
      </trkpt>
      <trkpt lat="46.32938" lon="4.16391">
        <ele>326</ele>
        <time>2020-06-06T18:59:28Z</time>
      </trkpt>
      <trkpt lat="46.32906" lon="4.1638">
        <ele>327</ele>
        <time>2020-06-06T19:00:12Z</time>
      </trkpt>
      <trkpt lat="46.32876" lon="4.16374">
        <ele>329</ele>
        <time>2020-06-06T19:00:52Z</time>
      </trkpt>
      <trkpt lat="46.32847" lon="4.16364">
        <ele>330</ele>
        <time>2020-06-06T19:01:32Z</time>
      </trkpt>
      <trkpt lat="46.32783" lon="4.16362">
        <ele>333</ele>
        <time>2020-06-06T19:02:57Z</time>
      </trkpt>
      <trkpt lat="46.32767" lon="4.16358">
        <ele>333</ele>
        <time>2020-06-06T19:03:19Z</time>
      </trkpt>
      <trkpt lat="46.32761" lon="4.1636">
        <ele>334</ele>
        <time>2020-06-06T19:03:27Z</time>
      </trkpt>
      <trkpt lat="46.32756" lon="4.16367">
        <ele>334</ele>
        <time>2020-06-06T19:03:36Z</time>
      </trkpt>
      <trkpt lat="46.32654" lon="4.16534">
        <ele>338</ele>
        <time>2020-06-06T19:07:02Z</time>
      </trkpt>
      <trkpt lat="46.32626" lon="4.16555">
        <ele>338</ele>
        <time>2020-06-06T19:07:44Z</time>
      </trkpt>
      <trkpt lat="46.32593" lon="4.16587">
        <ele>338</ele>
        <time>2020-06-06T19:08:37Z</time>
      </trkpt>
      <trkpt lat="46.32585" lon="4.16597">
        <ele>339</ele>
        <time>2020-06-06T19:08:51Z</time>
      </trkpt>
      <trkpt lat="46.32557" lon="4.1657">
        <ele>338</ele>
        <time>2020-06-06T19:09:36Z</time>
      </trkpt>
      <trkpt lat="46.3253" lon="4.16548">
        <ele>337</ele>
        <time>2020-06-06T19:10:17Z</time>
      </trkpt>
      <trkpt lat="46.32515" lon="4.16542">
        <ele>337</ele>
        <time>2020-06-06T19:10:38Z</time>
      </trkpt>
      <trkpt lat="46.3246" lon="4.16482">
        <ele>335</ele>
        <time>2020-06-06T19:12:10Z</time>
      </trkpt>
      <trkpt lat="46.32438" lon="4.16464">
        <ele>334</ele>
        <time>2020-06-06T19:12:44Z</time>
      </trkpt>
      <trkpt lat="46.32417" lon="4.16454">
        <ele>333</ele>
        <time>2020-06-06T19:13:13Z</time>
      </trkpt>
      <trkpt lat="46.3237" lon="4.16447">
        <ele>334</ele>
        <time>2020-06-06T19:14:16Z</time>
      </trkpt>
      <trkpt lat="46.32367" lon="4.16439">
        <ele>333</ele>
        <time>2020-06-06T19:14:24Z</time>
      </trkpt>
      <trkpt lat="46.32359" lon="4.16431">
        <ele>333</ele>
        <time>2020-06-06T19:14:37Z</time>
      </trkpt>
      <trkpt lat="46.32328" lon="4.16405">
        <ele>332</ele>
        <time>2020-06-06T19:15:25Z</time>
      </trkpt>
      <trkpt lat="46.32287" lon="4.16382">
        <ele>332</ele>
        <time>2020-06-06T19:16:24Z</time>
      </trkpt>
      <trkpt lat="46.32243" lon="4.16344">
        <ele>332</ele>
        <time>2020-06-06T19:17:32Z</time>
      </trkpt>
      <trkpt lat="46.32154" lon="4.16275">
        <ele>324</ele>
        <time>2020-06-06T19:19:47Z</time>
      </trkpt>
      <trkpt lat="46.32136" lon="4.16268">
        <ele>323</ele>
        <time>2020-06-06T19:20:12Z</time>
      </trkpt>
      <trkpt lat="46.32062" lon="4.16256">
        <ele>321</ele>
        <time>2020-06-06T19:21:51Z</time>
      </trkpt>
      <trkpt lat="46.32026" lon="4.16261">
        <ele>324</ele>
        <time>2020-06-06T19:22:40Z</time>
      </trkpt>
      <trkpt lat="46.31993" lon="4.16258">
        <ele>325</ele>
        <time>2020-06-06T19:23:24Z</time>
      </trkpt>
      <trkpt lat="46.31981" lon="4.16253">
        <ele>324</ele>
        <time>2020-06-06T19:23:40Z</time>
      </trkpt>
      <trkpt lat="46.3195" lon="4.16227">
        <ele>323</ele>
        <time>2020-06-06T19:24:28Z</time>
      </trkpt>
      <trkpt lat="46.31907" lon="4.16194">
        <ele>325</ele>
        <time>2020-06-06T19:25:33Z</time>
      </trkpt>
      <trkpt lat="46.31881" lon="4.16209">
        <ele>325</ele>
        <time>2020-06-06T19:26:10Z</time>
      </trkpt>
      <trkpt lat="46.31802" lon="4.16241">
        <ele>331</ele>
        <time>2020-06-06T19:28:00Z</time>
      </trkpt>
      <trkpt lat="46.3175" lon="4.16267">
        <ele>337</ele>
        <time>2020-06-06T19:29:13Z</time>
      </trkpt>
      <trkpt lat="46.31738" lon="4.16271">
        <ele>338</ele>
        <time>2020-06-06T19:29:30Z</time>
      </trkpt>
      <trkpt lat="46.31734" lon="4.16299">
        <ele>336</ele>
        <time>2020-06-06T19:29:56Z</time>
      </trkpt>
      <trkpt lat="46.3172" lon="4.1634">
        <ele>333</ele>
        <time>2020-06-06T19:30:38Z</time>
      </trkpt>
      <trkpt lat="46.31709" lon="4.16361">
        <ele>331</ele>
        <time>2020-06-06T19:31:03Z</time>
      </trkpt>
      <trkpt lat="46.31699" lon="4.16373">
        <ele>331</ele>
        <time>2020-06-06T19:31:20Z</time>
      </trkpt>
      <trkpt lat="46.31612" lon="4.16417">
        <ele>334</ele>
        <time>2020-06-06T19:33:23Z</time>
      </trkpt>
      <trkpt lat="46.31594" lon="4.16422">
        <ele>335</ele>
        <time>2020-06-06T19:33:47Z</time>
      </trkpt>
      <trkpt lat="46.3159" lon="4.16428">
        <ele>335</ele>
        <time>2020-06-06T19:33:55Z</time>
      </trkpt>
      <trkpt lat="46.31583" lon="4.1645">
        <ele>334</ele>
        <time>2020-06-06T19:34:17Z</time>
      </trkpt>
      <trkpt lat="46.31578" lon="4.16463">
        <ele>334</ele>
        <time>2020-06-06T19:34:31Z</time>
      </trkpt>
      <trkpt lat="46.31519" lon="4.16538">
        <ele>337</ele>
        <time>2020-06-06T19:36:16Z</time>
      </trkpt>
      <trkpt lat="46.31497" lon="4.16579">
        <ele>333</ele>
        <time>2020-06-06T19:37:04Z</time>
      </trkpt>
      <trkpt lat="46.3149" lon="4.16585">
        <ele>334</ele>
        <time>2020-06-06T19:37:15Z</time>
      </trkpt>
      <trkpt lat="46.31442" lon="4.16614">
        <ele>338</ele>
        <time>2020-06-06T19:38:24Z</time>
      </trkpt>
      <trkpt lat="46.31436" lon="4.16626">
        <ele>338</ele>
        <time>2020-06-06T19:38:38Z</time>
      </trkpt>
      <trkpt lat="46.31419" lon="4.16637">
        <ele>338</ele>
        <time>2020-06-06T19:39:02Z</time>
      </trkpt>
      <trkpt lat="46.31358" lon="4.16658">
        <ele>346</ele>
        <time>2020-06-06T19:40:26Z</time>
      </trkpt>
      <trkpt lat="46.31357" lon="4.16674">
        <ele>344</ele>
        <time>2020-06-06T19:40:41Z</time>
      </trkpt>
      <trkpt lat="46.31352" lon="4.16689">
        <ele>344</ele>
        <time>2020-06-06T19:40:56Z</time>
      </trkpt>
      <trkpt lat="46.31345" lon="4.16703">
        <ele>343</ele>
        <time>2020-06-06T19:41:12Z</time>
      </trkpt>
      <trkpt lat="46.31337" lon="4.16713">
        <ele>343</ele>
        <time>2020-06-06T19:41:26Z</time>
      </trkpt>
      <trkpt lat="46.31308" lon="4.16742">
        <ele>342</ele>
        <time>2020-06-06T19:42:13Z</time>
      </trkpt>
      <trkpt lat="46.31302" lon="4.16857">
        <ele>344</ele>
        <time>2020-06-06T19:44:00Z</time>
      </trkpt>
      <trkpt lat="46.3131" lon="4.16886">
        <ele>345</ele>
        <time>2020-06-06T19:44:28Z</time>
      </trkpt>
      <trkpt lat="46.31267" lon="4.16857">
        <ele>348</ele>
        <time>2020-06-06T19:45:32Z</time>
      </trkpt>
      <trkpt lat="46.31213" lon="4.16883">
        <ele>355</ele>
        <time>2020-06-06T19:46:48Z</time>
      </trkpt>
      <trkpt lat="46.30957" lon="4.17061">
        <ele>372</ele>
        <time>2020-06-06T19:53:07Z</time>
      </trkpt>
      <trkpt lat="46.30936" lon="4.1708">
        <ele>373</ele>
        <time>2020-06-06T19:53:40Z</time>
      </trkpt>
      <trkpt lat="46.30883" lon="4.17137">
        <ele>373</ele>
        <time>2020-06-06T19:55:08Z</time>
      </trkpt>
      <trkpt lat="46.30853" lon="4.17153">
        <ele>374</ele>
        <time>2020-06-06T19:55:50Z</time>
      </trkpt>
      <trkpt lat="46.30805" lon="4.17193">
        <ele>376</ele>
        <time>2020-06-06T19:57:04Z</time>
      </trkpt>
      <trkpt lat="46.30781" lon="4.17227">
        <ele>376</ele>
        <time>2020-06-06T19:57:49Z</time>
      </trkpt>
      <trkpt lat="46.30772" lon="4.17236">
        <ele>377</ele>
        <time>2020-06-06T19:58:04Z</time>
      </trkpt>
      <trkpt lat="46.30765" lon="4.1724">
        <ele>378</ele>
        <time>2020-06-06T19:58:14Z</time>
      </trkpt>
      <trkpt lat="46.3075" lon="4.17238">
        <ele>379</ele>
        <time>2020-06-06T19:58:34Z</time>
      </trkpt>
      <trkpt lat="46.30688" lon="4.17241">
        <ele>382</ele>
        <time>2020-06-06T19:59:57Z</time>
      </trkpt>
      <trkpt lat="46.3062" lon="4.17242">
        <ele>385</ele>
        <time>2020-06-06T20:01:27Z</time>
      </trkpt>
      <trkpt lat="46.30605" lon="4.17246">
        <ele>386</ele>
        <time>2020-06-06T20:01:48Z</time>
      </trkpt>
      <trkpt lat="46.30588" lon="4.17254">
        <ele>387</ele>
        <time>2020-06-06T20:02:12Z</time>
      </trkpt>
      <trkpt lat="46.30529" lon="4.17289">
        <ele>389</ele>
        <time>2020-06-06T20:03:37Z</time>
      </trkpt>
      <trkpt lat="46.30518" lon="4.17293">
        <ele>389</ele>
        <time>2020-06-06T20:03:52Z</time>
      </trkpt>
      <trkpt lat="46.30466" lon="4.17305">
        <ele>391</ele>
        <time>2020-06-06T20:05:02Z</time>
      </trkpt>
      <trkpt lat="46.30416" lon="4.17326">
        <ele>394</ele>
        <time>2020-06-06T20:06:12Z</time>
      </trkpt>
      <trkpt lat="46.30402" lon="4.17336">
        <ele>394</ele>
        <time>2020-06-06T20:06:32Z</time>
      </trkpt>
      <trkpt lat="46.30393" lon="4.17345">
        <ele>394</ele>
        <time>2020-06-06T20:06:47Z</time>
      </trkpt>
      <trkpt lat="46.30361" lon="4.17395">
        <ele>395</ele>
        <time>2020-06-06T20:07:50Z</time>
      </trkpt>
      <trkpt lat="46.30324" lon="4.17431">
        <ele>396</ele>
        <time>2020-06-06T20:08:49Z</time>
      </trkpt>
      <trkpt lat="46.30304" lon="4.17443">
        <ele>397</ele>
        <time>2020-06-06T20:09:18Z</time>
      </trkpt>
      <trkpt lat="46.30104" lon="4.17508">
        <ele>404</ele>
        <time>2020-06-06T20:13:52Z</time>
      </trkpt>
      <trkpt lat="46.30104" lon="4.17508">
        <ele>404</ele>
        <time>2020-06-06T20:13:52Z</time>
      </trkpt>
      <trkpt lat="46.30066" lon="4.17504">
        <ele>405</ele>
        <time>2020-06-06T20:14:43Z</time>
      </trkpt>
      <trkpt lat="46.30004" lon="4.1749">
        <ele>406</ele>
        <time>2020-06-06T20:16:06Z</time>
      </trkpt>
      <trkpt lat="46.29987" lon="4.17482">
        <ele>406</ele>
        <time>2020-06-06T20:16:30Z</time>
      </trkpt>
      <trkpt lat="46.29938" lon="4.17442">
        <ele>404</ele>
        <time>2020-06-06T20:17:45Z</time>
      </trkpt>
      <trkpt lat="46.29911" lon="4.17368">
        <ele>401</ele>
        <time>2020-06-06T20:19:02Z</time>
      </trkpt>
      <trkpt lat="46.29906" lon="4.17349">
        <ele>400</ele>
        <time>2020-06-06T20:19:21Z</time>
      </trkpt>
      <trkpt lat="46.29893" lon="4.17272">
        <ele>399</ele>
        <time>2020-06-06T20:20:34Z</time>
      </trkpt>
      <trkpt lat="46.29864" lon="4.17176">
        <ele>401</ele>
        <time>2020-06-06T20:22:11Z</time>
      </trkpt>
      <trkpt lat="46.29842" lon="4.17088">
        <ele>403</ele>
        <time>2020-06-06T20:23:37Z</time>
      </trkpt>
      <trkpt lat="46.29833" lon="4.17037">
        <ele>403</ele>
        <time>2020-06-06T20:24:26Z</time>
      </trkpt>
      <trkpt lat="46.2983" lon="4.1698">
        <ele>402</ele>
        <time>2020-06-06T20:25:18Z</time>
      </trkpt>
      <trkpt lat="46.29835" lon="4.16897">
        <ele>401</ele>
        <time>2020-06-06T20:26:35Z</time>
      </trkpt>
      <trkpt lat="46.29842" lon="4.16826">
        <ele>399</ele>
        <time>2020-06-06T20:27:41Z</time>
      </trkpt>
      <trkpt lat="46.29849" lon="4.16778">
        <ele>397</ele>
        <time>2020-06-06T20:28:27Z</time>
      </trkpt>
      <trkpt lat="46.29859" lon="4.16719">
        <ele>396</ele>
        <time>2020-06-06T20:29:23Z</time>
      </trkpt>
      <trkpt lat="46.29882" lon="4.1662">
        <ele>393</ele>
        <time>2020-06-06T20:30:59Z</time>
      </trkpt>
      <trkpt lat="46.29887" lon="4.16573">
        <ele>390</ele>
        <time>2020-06-06T20:31:43Z</time>
      </trkpt>
      <trkpt lat="46.29886" lon="4.16552">
        <ele>389</ele>
        <time>2020-06-06T20:32:02Z</time>
      </trkpt>
      <trkpt lat="46.29881" lon="4.16528">
        <ele>387</ele>
        <time>2020-06-06T20:32:25Z</time>
      </trkpt>
      <trkpt lat="46.29858" lon="4.16458">
        <ele>381</ele>
        <time>2020-06-06T20:33:37Z</time>
      </trkpt>
      <trkpt lat="46.29836" lon="4.16365">
        <ele>372</ele>
        <time>2020-06-06T20:35:07Z</time>
      </trkpt>
      <trkpt lat="46.29843" lon="4.16361">
        <ele>372</ele>
        <time>2020-06-06T20:35:17Z</time>
      </trkpt>
      <trkpt lat="46.29876" lon="4.16362">
        <ele>374</ele>
        <time>2020-06-06T20:36:01Z</time>
      </trkpt>
      <trkpt lat="46.29901" lon="4.16359">
        <ele>376</ele>
        <time>2020-06-06T20:36:35Z</time>
      </trkpt>
      <trkpt lat="46.29909" lon="4.1635">
        <ele>376</ele>
        <time>2020-06-06T20:36:48Z</time>
      </trkpt>
      <trkpt lat="46.29914" lon="4.16335">
        <ele>376</ele>
        <time>2020-06-06T20:37:04Z</time>
      </trkpt>
      <trkpt lat="46.29915" lon="4.16305">
        <ele>376</ele>
        <time>2020-06-06T20:37:31Z</time>
      </trkpt>
      <trkpt lat="46.29907" lon="4.16275">
        <ele>375</ele>
        <time>2020-06-06T20:38:01Z</time>
      </trkpt>
      <trkpt lat="46.29906" lon="4.16251">
        <ele>374</ele>
        <time>2020-06-06T20:38:23Z</time>
      </trkpt>
      <trkpt lat="46.29912" lon="4.16241">
        <ele>375</ele>
        <time>2020-06-06T20:38:36Z</time>
      </trkpt>
      <trkpt lat="46.29916" lon="4.16236">
        <ele>376</ele>
        <time>2020-06-06T20:38:43Z</time>
      </trkpt>
    </trkseg>
  </trk>
</gpx>